createdAt,value
2023-02-12T00:01:09.947Z,102876.34
2023-02-12T00:03:38.171Z,102881.84
2023-02-12T00:06:05.480Z,102873.56
2023-02-12T00:08:32.199Z,102879.91
2023-02-12T00:10:58.893Z,102878.56
2023-02-12T00:13:26.062Z,102867.81
2023-02-12T00:15:53.041Z,102876.88
2023-02-12T00:18:19.903Z,102885.16
2023-02-12T00:20:46.621Z,102883.53
2023-02-12T00:23:13.461Z,102886.56
2023-02-12T00:25:43.266Z,102885.75
2023-02-12T00:28:10.240Z,102883.00
2023-02-12T00:30:37.176Z,102884.63
2023-02-12T00:33:03.977Z,102880.22
2023-02-12T00:35:30.755Z,102870.28
2023-02-12T00:37:57.649Z,102879.41
2023-02-12T00:40:24.492Z,102877.72
2023-02-12T00:42:51.189Z,102876.91
2023-02-12T00:45:18.171Z,102872.22
2023-02-12T00:47:44.961Z,102878.56
2023-02-12T00:50:12.116Z,102873.03
2023-02-12T00:52:38.837Z,102873.88
2023-02-12T00:55:05.927Z,102874.72
2023-02-12T00:57:33.554Z,102866.69
2023-02-12T01:00:00.330Z,102869.44
2023-02-12T01:02:27.104Z,102858.41
2023-02-12T01:04:53.876Z,102862.25
2023-02-12T01:07:20.598Z,102863.09
2023-02-12T01:09:47.502Z,102853.19
2023-02-12T01:12:14.407Z,102854.81
2023-02-12T01:14:41.137Z,102860.34
2023-02-12T01:17:09.791Z,102853.19
2023-02-12T01:19:36.523Z,102853.19
2023-02-12T01:22:03.390Z,102850.13
2023-02-12T01:24:30.165Z,102852.88
2023-02-12T01:26:56.899Z,102845.44
2023-02-12T01:29:23.624Z,102843.78
2023-02-12T01:31:50.494Z,102834.41
2023-02-12T01:34:17.355Z,102836.31
2023-02-12T01:36:44.145Z,102832.72
2023-02-12T01:39:11.835Z,102842.13
2023-02-12T01:41:43.102Z,102834.94
2023-02-12T01:44:19.389Z,102830.53
2023-02-12T01:46:48.119Z,102830.53
2023-02-12T01:49:21.647Z,102822.56
2023-02-12T01:51:52.893Z,102827.78
2023-02-12T01:54:27.452Z,102820.34
2023-02-12T01:56:54.932Z,102823.94
2023-02-12T01:59:24.561Z,102825.03
2023-02-12T02:01:51.805Z,102815.09
2023-02-12T02:04:23.653Z,102817.28
2023-02-12T02:07:03.208Z,102802.97
2023-02-12T02:09:33.674Z,102805.47
2023-02-12T02:12:20.378Z,102803.81
2023-02-12T02:14:48.525Z,102806.84
2023-02-12T02:17:51.941Z,102802.97
2023-02-12T02:20:49.645Z,102798.59
2023-02-12T02:23:22.346Z,102801.34
2023-02-12T02:25:58.428Z,102796.38
2023-02-12T02:28:43.571Z,102798.88
2023-02-12T02:31:19.191Z,102793.59
2023-02-12T02:33:52.081Z,102797.47
2023-02-12T02:36:58.029Z,102796.38
2023-02-12T02:39:53.898Z,102797.47
2023-02-12T02:42:27.968Z,102796.63
2023-02-12T02:45:13.686Z,102807.66
2023-02-12T02:47:45.980Z,102799.69
2023-02-12T02:50:18.299Z,102802.69
2023-02-12T02:53:06.423Z,102812.91
2023-02-12T02:55:41.128Z,102810.44
2023-02-12T02:58:14.653Z,102807.69
2023-02-12T03:00:49.342Z,102804.91
2023-02-12T03:03:25.555Z,102814.03
2023-02-12T03:05:59.331Z,102806.84
2023-02-12T03:08:34.280Z,102809.59
2023-02-12T03:11:31.592Z,102801.31
2023-02-12T03:14:13.207Z,102794.97
2023-02-12T03:16:48.599Z,102794.16
2023-02-12T03:19:23.056Z,102789.75
2023-02-12T03:22:04.386Z,102802.72
2023-02-12T03:24:36.864Z,102792.81
2023-02-12T03:27:10.045Z,102791.97
2023-02-12T03:29:37.345Z,102796.66
2023-02-12T03:32:15.921Z,102788.66
2023-02-12T03:34:51.808Z,102779.25
2023-02-12T03:37:30.729Z,102784.78
2023-02-12T03:40:28.012Z,102782.84
2023-02-12T03:43:00.772Z,102783.69
2023-02-12T03:45:53.016Z,102775.41
2023-02-12T03:48:25.996Z,102777.63
2023-02-12T03:51:00.250Z,102777.63
2023-02-12T03:53:28.844Z,102778.44
2023-02-12T03:56:12.852Z,102772.13
2023-02-12T03:58:41.656Z,102762.72
2023-02-12T04:01:08.979Z,102760.78
2023-02-12T04:03:36.334Z,102759.94
2023-02-12T04:06:03.143Z,102757.19
2023-02-12T04:08:31.092Z,102769.06
2023-02-12T04:11:44.512Z,102771.81
2023-02-12T04:14:50.465Z,102771.00
2023-02-12T04:17:32.800Z,102772.91
2023-02-12T04:20:05.674Z,102767.69
2023-02-12T04:23:11.787Z,102761.06
2023-02-12T04:26:32.808Z,102767.69
2023-02-12T04:29:14.335Z,102771.28
2023-02-12T04:32:00.007Z,102776.81
2023-02-12T04:34:39.793Z,102768.78
2023-02-12T04:37:45.592Z,102766.31
2023-02-12T04:40:14.920Z,102771.84
2023-02-12T04:42:47.335Z,102773.75
2023-02-12T04:45:15.342Z,102781.22
2023-02-12T04:47:42.120Z,102774.84
2023-02-12T04:50:09.397Z,102776.53
2023-02-12T04:52:36.141Z,102780.38
2023-02-12T04:55:02.861Z,102781.22
2023-02-12T04:57:29.715Z,102785.91
2023-02-12T04:59:56.635Z,102791.41
2023-02-12T05:02:23.436Z,102791.41
2023-02-12T05:04:51.050Z,102793.38
2023-02-12T05:07:17.805Z,102789.78
2023-02-12T05:09:44.517Z,102790.88
2023-02-12T05:12:11.298Z,102788.09
2023-02-12T05:14:38.111Z,102794.75
2023-02-12T05:17:04.832Z,102789.22
2023-02-12T05:19:31.595Z,102789.50
2023-02-12T05:21:58.391Z,102795.00
2023-02-12T05:24:25.998Z,102787.03
2023-02-12T05:26:53.102Z,102795.00
2023-02-12T05:29:20.037Z,102801.38
2023-02-12T05:31:46.853Z,102794.19
2023-02-12T05:34:14.123Z,102795.00
2023-02-12T05:36:41.263Z,102793.38
2023-02-12T05:39:07.980Z,102795.31
2023-02-12T05:41:37.825Z,102787.03
2023-02-12T05:44:06.685Z,102785.91
2023-02-12T05:46:34.008Z,102792.53
2023-02-12T05:49:00.803Z,102782.06
2023-02-12T05:51:27.968Z,102785.91
2023-02-12T05:54:03.821Z,102786.75
2023-02-12T05:56:43.764Z,102784.00
2023-02-12T05:59:17.094Z,102789.50
2023-02-12T06:01:45.705Z,102785.91
2023-02-12T06:04:24.280Z,102780.41
2023-02-12T06:06:52.509Z,102787.59
2023-02-12T06:09:19.727Z,102787.59
2023-02-12T06:11:46.515Z,102787.59
2023-02-12T06:14:16.774Z,102778.19
2023-02-12T06:16:51.506Z,102776.53
2023-02-12T06:19:19.336Z,102774.63
2023-02-12T06:21:46.468Z,102774.63
2023-02-12T06:24:15.115Z,102772.66
2023-02-12T06:26:42.664Z,102774.34
2023-02-12T06:29:10.532Z,102772.66
2023-02-12T06:31:38.142Z,102771.03
2023-02-12T06:34:09.941Z,102776.53
2023-02-12T06:36:38.413Z,102771.03
2023-02-12T06:39:05.697Z,102764.69
2023-02-12T06:41:32.559Z,102766.59
2023-02-12T06:43:59.455Z,102775.72
2023-02-12T06:46:26.255Z,102771.28
2023-02-12T06:48:57.842Z,102768.53
2023-02-12T06:51:25.397Z,102761.09
2023-02-12T06:53:53.492Z,102763.84
2023-02-12T06:56:21.755Z,102756.97
2023-02-12T06:58:58.037Z,102760.56
2023-02-12T07:01:27.899Z,102756.13
2023-02-12T07:03:57.497Z,102750.63
2023-02-12T07:06:25.413Z,102755.59
2023-02-12T07:08:52.738Z,102755.59
2023-02-12T07:11:24.297Z,102758.34
2023-02-12T07:13:51.138Z,102756.72
2023-02-12T07:16:18.339Z,102763.31
2023-02-12T07:18:46.122Z,102761.41
2023-02-12T07:21:15.013Z,102763.03
2023-02-12T07:23:42.536Z,102763.84
2023-02-12T07:26:12.569Z,102767.75
2023-02-12T07:28:40.618Z,102772.44
2023-02-12T07:31:10.120Z,102770.50
2023-02-12T07:33:38.310Z,102776.00
2023-02-12T07:36:07.670Z,102773.53
2023-02-12T07:38:39.578Z,102779.88
2023-02-12T07:41:10.507Z,102779.03
2023-02-12T07:43:37.926Z,102791.72
2023-02-12T07:46:13.740Z,102792.00
2023-02-12T07:48:40.621Z,102789.81
2023-02-12T07:51:09.637Z,102783.47
2023-02-12T07:53:36.826Z,102790.59
2023-02-12T07:56:18.351Z,102792.56
2023-02-12T07:58:46.909Z,102797.25
2023-02-12T08:01:13.841Z,102793.38
2023-02-12T08:03:41.018Z,102791.72
2023-02-12T08:06:14.583Z,102803.59
2023-02-12T08:08:41.491Z,102806.91
2023-02-12T08:11:10.910Z,102809.66
2023-02-12T08:13:38.762Z,102815.16
2023-02-12T08:16:08.895Z,102814.03
2023-02-12T08:18:36.118Z,102806.59
2023-02-12T08:21:18.262Z,102810.19
2023-02-12T08:23:45.563Z,102811.88
2023-02-12T08:26:18.844Z,102816.25
2023-02-12T08:28:51.840Z,102811.28
2023-02-12T08:31:21.477Z,102803.84
2023-02-12T08:33:51.799Z,102814.63
2023-02-12T08:36:24.324Z,102822.59
2023-02-12T08:38:51.756Z,102814.88
2023-02-12T08:41:26.641Z,102820.13
2023-02-12T08:43:55.738Z,102820.66
2023-02-12T08:46:25.758Z,102810.72
2023-02-12T08:48:57.664Z,102808.53
2023-02-12T08:51:27.358Z,102804.38
2023-02-12T08:53:59.590Z,102801.34
2023-02-12T08:56:27.453Z,102795.81
2023-02-12T08:58:54.166Z,102800.50
2023-02-12T09:01:23.401Z,102808.53
2023-02-12T09:03:51.391Z,102801.31
2023-02-12T09:06:20.361Z,102803.53
2023-02-12T09:08:47.737Z,102802.97
2023-02-12T09:11:17.312Z,102801.88
2023-02-12T09:13:45.829Z,102807.13
2023-02-12T09:16:13.755Z,102808.50
2023-02-12T09:18:40.865Z,102805.19
2023-02-12T09:21:13.878Z,102799.38
2023-02-12T09:23:41.133Z,102798.56
2023-02-12T09:26:10.603Z,102791.66
2023-02-12T09:28:38.868Z,102796.88
2023-02-12T09:31:11.874Z,102795.78
2023-02-12T09:33:39.026Z,102790.50
2023-02-12T09:36:08.738Z,102786.34
2023-02-12T09:38:36.160Z,102788.03
2023-02-12T09:41:16.167Z,102776.69
2023-02-12T09:44:09.300Z,102783.59
2023-02-12T09:47:06.284Z,102775.84
2023-02-12T09:49:54.487Z,102773.94
2023-02-12T09:52:26.882Z,102773.34
2023-02-12T09:54:53.637Z,102773.63
2023-02-12T09:57:31.784Z,102762.28
2023-02-12T10:00:03.544Z,102763.44
2023-02-12T10:02:30.679Z,102775.84
2023-02-12T10:05:02.038Z,102760.91
2023-02-12T10:07:37.866Z,102767.25
2023-02-12T10:10:29.514Z,102775.28
2023-02-12T10:13:12.212Z,102774.72
2023-02-12T10:16:01.816Z,102768.88
2023-02-12T10:18:34.206Z,102770.78
2023-02-12T10:21:16.126Z,102766.38
2023-02-12T10:24:12.580Z,102764.69
2023-02-12T10:26:44.321Z,102763.56
2023-02-12T10:29:24.409Z,102762.97
2023-02-12T10:34:41.693Z,102767.38
2023-02-12T10:37:37.912Z,102767.38
2023-02-12T10:40:32.788Z,102765.16
2023-02-12T10:43:01.696Z,102762.38
2023-02-12T10:45:39.874Z,102756.56
2023-02-12T10:48:09.393Z,102762.09
2023-02-12T10:50:42.829Z,102763.44
2023-02-12T10:53:22.057Z,102753.75
2023-02-12T10:55:48.882Z,102763.38
2023-02-12T10:58:22.106Z,102756.72
2023-02-12T11:01:00.336Z,102763.88
2023-02-12T11:03:37.648Z,102757.78
2023-02-12T11:06:17.374Z,102768.22
2023-02-12T11:08:44.918Z,102757.13
2023-02-12T11:11:20.430Z,102751.59
2023-02-12T11:13:54.856Z,102740.75
2023-02-12T11:16:33.708Z,102741.00
2023-02-12T11:19:18.169Z,102745.97
2023-02-12T11:21:45.067Z,102744.31
2023-02-12T11:24:31.943Z,102745.13
2023-02-12T11:27:12.019Z,102746.78
2023-02-12T11:29:39.369Z,102734.91
2023-02-12T11:32:09.127Z,102740.97
2023-02-12T11:34:36.439Z,102731.84
2023-02-12T11:37:05.199Z,102733.19
2023-02-12T11:39:38.203Z,102741.50
2023-02-12T11:42:16.544Z,102737.00
2023-02-12T11:44:48.794Z,102720.09
2023-02-12T11:47:24.022Z,102718.75
2023-02-12T11:50:02.870Z,102715.41
2023-02-12T11:52:35.570Z,102712.88
2023-02-12T11:55:18.848Z,102718.66
2023-02-12T11:57:51.694Z,102721.44
2023-02-12T12:00:21.373Z,102717.31
2023-02-12T12:03:12.938Z,102716.69
2023-02-12T12:05:47.238Z,102714.97
2023-02-12T12:08:33.594Z,102705.56
2023-02-12T12:11:11.047Z,102707.25
2023-02-12T12:13:45.942Z,102698.63
2023-02-12T12:16:46.345Z,102696.25
2023-02-12T12:19:38.918Z,102686.03
2023-02-12T12:22:17.713Z,102683.53
2023-02-12T12:24:52.329Z,102665.41
2023-02-12T12:27:40.297Z,102670.75
2023-02-12T12:30:17.805Z,102657.03
2023-02-12T12:32:47.662Z,102655.50
2023-02-12T12:35:19.400Z,102657.78
2023-02-12T12:37:58.522Z,102644.75
2023-02-12T12:40:34.055Z,102644.44
2023-02-12T12:43:14.507Z,102637.97
2023-02-12T12:45:59.024Z,102641.75
2023-02-12T12:48:46.245Z,102637.84
2023-02-12T12:51:18.666Z,102636.44
2023-02-12T12:54:08.045Z,102644.91
2023-02-12T12:56:56.348Z,102634.16
2023-02-12T12:59:43.971Z,102626.69
2023-02-12T13:02:41.600Z,102631.03
2023-02-12T13:05:23.949Z,102630.38
2023-02-12T13:08:14.938Z,102627.00
2023-02-12T13:10:50.906Z,102622.97
2023-02-12T13:13:26.428Z,102624.97
2023-02-12T13:16:25.219Z,102626.56
2023-02-12T13:18:54.748Z,102624.50
2023-02-12T13:21:46.490Z,102615.31
2023-02-12T13:24:16.092Z,102623.03
2023-02-12T13:26:47.392Z,102625.22
2023-02-12T13:29:21.092Z,102620.66
2023-02-12T13:31:54.528Z,102621.63
2023-02-12T13:34:23.128Z,102612.81
2023-02-12T13:36:50.433Z,102612.91
2023-02-12T13:39:43.086Z,102614.06
2023-02-12T13:42:27.864Z,102611.97
2023-02-12T13:45:01.939Z,102607.03
2023-02-12T13:47:45.103Z,102606.78
2023-02-12T13:50:20.840Z,102596.78
2023-02-12T13:53:01.699Z,102605.38
2023-02-12T13:55:41.730Z,102612.13
2023-02-12T13:58:46.891Z,102603.97
2023-02-12T14:01:38.644Z,102592.75
2023-02-12T14:04:14.831Z,102593.13
2023-02-12T14:06:59.797Z,102594.94
2023-02-12T14:09:38.414Z,102597.75
2023-02-12T14:12:11.962Z,102601.22
2023-02-12T14:14:48.714Z,102589.75
2023-02-12T14:17:33.397Z,102590.41
2023-02-12T14:20:28.487Z,102582.16
2023-02-12T14:23:02.109Z,102587.69
2023-02-12T14:25:42.256Z,102574.25
2023-02-12T14:28:25.648Z,102579.50
2023-02-12T14:31:20.934Z,102573.97
2023-02-12T14:33:50.731Z,102558.31
2023-02-12T14:36:32.717Z,102584.13
2023-02-12T14:39:19.651Z,102581.84
2023-02-12T14:42:15.889Z,102577.09
2023-02-12T14:45:05.165Z,102573.72
2023-02-12T14:47:31.851Z,102563.56
2023-02-12T14:50:17.118Z,102562.22
2023-02-12T14:52:51.986Z,102565.63
2023-02-12T14:55:30.363Z,102556.25
2023-02-12T14:58:20.213Z,102559.59
2023-02-12T15:00:49.753Z,102556.25
2023-02-12T15:03:30.726Z,102561.88
2023-02-12T15:06:21.238Z,102566.19
2023-02-12T15:09:00.337Z,102559.47
2023-02-12T15:11:33.081Z,102559.63
2023-02-12T15:14:35.326Z,102561.09
2023-02-12T15:17:12.105Z,102553.69
2023-02-12T15:19:56.185Z,102563.41
2023-02-12T15:22:29.725Z,102550.91
2023-02-12T15:25:29.345Z,102558.41
2023-02-12T15:27:59.603Z,102558.47
2023-02-12T15:30:30.540Z,102559.31
2023-02-12T15:32:59.632Z,102552.94
2023-02-12T15:35:32.624Z,102556.00
2023-02-12T15:38:01.263Z,102559.06
2023-02-12T15:40:30.636Z,102556.09
2023-02-12T15:43:00.008Z,102558.59
2023-02-12T15:45:29.146Z,102562.03
2023-02-12T15:48:02.033Z,102554.69
2023-02-12T15:50:30.801Z,102558.03
2023-02-12T15:52:57.945Z,102568.03
2023-02-12T15:55:27.713Z,102561.47
2023-02-12T15:57:58.406Z,102557.09
2023-02-12T16:00:45.098Z,102561.66
2023-02-12T16:03:26.866Z,102554.00
2023-02-12T16:05:58.223Z,102562.97
2023-02-12T16:08:25.494Z,102560.25
2023-02-12T16:10:55.922Z,102558.34
2023-02-12T16:13:34.618Z,102555.38
2023-02-12T16:16:13.537Z,102557.56
2023-02-12T16:19:07.216Z,102562.06
2023-02-12T16:21:38.254Z,102553.25
2023-02-12T16:24:06.252Z,102549.91
2023-02-12T16:26:33.079Z,102558.78
2023-02-12T16:28:59.851Z,102555.44
2023-02-12T16:31:27.874Z,102554.66
2023-02-12T16:33:58.650Z,102548.88
2023-02-12T16:36:25.409Z,102558.28
2023-02-12T16:38:54.654Z,102564.41
2023-02-12T16:41:27.183Z,102537.63
2023-02-12T16:44:00.022Z,102552.28
2023-02-12T16:46:32.361Z,102552.28
2023-02-12T16:49:00.865Z,102548.72
2023-02-12T16:51:29.600Z,102545.72
2023-02-12T16:54:01.393Z,102547.44
2023-02-12T16:56:38.839Z,102546.91
2023-02-12T16:59:05.847Z,102547.16
2023-02-12T17:01:35.668Z,102537.00
2023-02-12T17:04:08.897Z,102540.34
2023-02-12T17:06:35.628Z,102545.66
2023-02-12T17:09:02.437Z,102534.91
2023-02-12T17:11:29.641Z,102544.91
2023-02-12T17:13:56.813Z,102538.31
2023-02-12T17:16:32.313Z,102543.88
2023-02-12T17:19:00.278Z,102551.66
2023-02-12T17:21:37.910Z,102559.69
2023-02-12T17:24:26.366Z,102564.69
2023-02-12T17:26:54.074Z,102556.66
2023-02-12T17:29:22.971Z,102558.38
2023-02-12T17:31:53.775Z,102550.66
2023-02-12T17:34:21.289Z,102555.38
2023-02-12T17:36:48.705Z,102550.22
2023-02-12T17:39:16.688Z,102550.47
2023-02-12T17:41:44.331Z,102546.91
2023-02-12T17:44:13.398Z,102552.97
2023-02-12T17:46:40.148Z,102559.06
2023-02-12T17:49:07.115Z,102557.16
2023-02-12T17:51:33.859Z,102550.59
2023-02-12T17:54:00.649Z,102555.31
2023-02-12T17:56:27.813Z,102544.88
2023-02-12T17:58:54.606Z,102550.94
2023-02-12T18:01:23.182Z,102539.41
2023-02-12T18:03:53.714Z,102537.78
2023-02-12T18:06:29.600Z,102541.66
2023-02-12T18:08:58.036Z,102544.44
2023-02-12T18:11:25.702Z,102544.16
2023-02-12T18:13:53.986Z,102545.31
2023-02-12T18:16:20.894Z,102546.69
2023-02-12T18:18:48.266Z,102548.88
2023-02-12T18:21:16.261Z,102553.88
2023-02-12T18:23:43.870Z,102536.78
2023-02-12T18:26:18.201Z,102534.06
2023-02-12T18:28:45.066Z,102534.06
2023-02-12T18:31:12.680Z,102537.91
2023-02-12T18:33:39.726Z,102535.16
2023-02-12T18:36:09.398Z,102529.09
2023-02-12T18:38:38.078Z,102529.13
2023-02-12T18:41:09.709Z,102521.41
2023-02-12T18:43:37.170Z,102529.16
2023-02-12T18:46:12.462Z,102530.25
2023-02-12T18:48:39.230Z,102533.00
2023-02-12T18:51:08.337Z,102534.13
2023-02-12T18:53:36.369Z,102533.53
2023-02-12T18:56:08.172Z,102536.88
2023-02-12T18:58:35.985Z,102531.63
2023-02-12T19:01:16.302Z,102528.88
2023-02-12T19:03:44.362Z,102529.97
2023-02-12T19:06:12.003Z,102530.81
2023-02-12T19:08:38.884Z,102541.81
2023-02-12T19:11:07.242Z,102530.56
2023-02-12T19:13:34.099Z,102532.19
2023-02-12T19:16:06.780Z,102529.19
2023-02-12T19:18:33.558Z,102528.88
2023-02-12T19:21:00.902Z,102523.66
2023-02-12T19:23:27.616Z,102529.97
2023-02-12T19:25:54.407Z,102522.00
2023-02-12T19:28:21.154Z,102523.66
2023-02-12T19:30:47.986Z,102525.28
2023-02-12T19:33:15.345Z,102523.38
2023-02-12T19:35:43.250Z,102520.91
2023-02-12T19:38:09.965Z,102508.50
2023-02-12T19:40:36.712Z,102513.72
2023-02-12T19:43:03.390Z,102509.31
2023-02-12T19:45:32.564Z,102509.84
2023-02-12T19:47:59.348Z,102508.72
2023-02-12T19:50:26.028Z,102514.00
2023-02-12T19:52:52.695Z,102513.16
2023-02-12T19:55:19.511Z,102503.53
2023-02-12T19:57:48.041Z,102492.25
2023-02-12T20:00:15.160Z,102500.25
2023-02-12T20:02:43.937Z,102490.91
2023-02-12T20:05:10.898Z,102487.06
2023-02-12T20:07:37.790Z,102489.84
2023-02-12T20:10:04.790Z,102481.84
2023-02-12T20:12:31.529Z,102483.22
2023-02-12T20:15:00.990Z,102485.69
2023-02-12T20:17:27.716Z,102472.50
2023-02-12T20:19:54.506Z,102473.59
2023-02-12T20:22:22.605Z,102470.03
2023-02-12T20:24:51.108Z,102465.91
2023-02-12T20:27:17.782Z,102464.25
2023-02-12T20:29:44.530Z,102457.94
2023-02-12T20:32:12.060Z,102459.03
2023-02-12T20:34:50.183Z,102471.13
2023-02-12T20:37:18.958Z,102474.19
2023-02-12T20:39:45.718Z,102474.72
2023-02-12T20:42:12.539Z,102472.28
2023-02-12T20:44:39.302Z,102457.38
2023-02-12T20:47:05.986Z,102458.78
2023-02-12T20:49:32.743Z,102456.31
2023-02-12T20:51:59.636Z,102449.44
2023-02-12T20:54:26.386Z,102452.19
2023-02-12T20:56:55.482Z,102441.72
2023-02-12T20:59:22.259Z,102438.69
2023-02-12T21:01:49.346Z,102446.41
2023-02-12T21:04:18.084Z,102449.69
2023-02-12T21:06:45.973Z,102446.13
2023-02-12T21:09:14.401Z,102443.66
2023-02-12T21:11:43.043Z,102443.94
2023-02-12T21:14:26.012Z,102438.44
2023-02-12T21:16:55.102Z,102433.72
2023-02-12T21:19:22.637Z,102425.78
2023-02-12T21:21:49.604Z,102428.81
2023-02-12T21:24:21.849Z,102418.91
2023-02-12T21:26:48.580Z,102417.22
2023-02-12T21:29:15.580Z,102415.88
2023-02-12T21:31:47.458Z,102415.88
2023-02-12T21:34:18.359Z,102421.09
2023-02-12T21:36:47.129Z,102406.50
2023-02-12T21:39:17.030Z,102413.09
2023-02-12T21:41:44.291Z,102406.50
2023-02-12T21:44:14.835Z,102403.22
2023-02-12T21:46:41.859Z,102411.19
2023-02-12T21:49:12.155Z,102406.50
2023-02-12T21:51:41.640Z,102410.09
2023-02-12T21:54:12.555Z,102419.19
2023-02-12T21:56:41.321Z,102417.53
2023-02-12T21:59:09.458Z,102418.34
2023-02-12T22:01:39.052Z,102415.59
2023-02-12T22:04:06.900Z,102409.81
2023-02-12T22:06:37.480Z,102416.97
2023-02-12T22:09:09.255Z,102421.09
2023-02-12T22:11:37.903Z,102402.66
2023-02-12T22:14:05.476Z,102402.66
2023-02-12T22:16:32.532Z,102401.00
2023-02-12T22:19:01.905Z,102396.03
2023-02-12T22:21:31.582Z,102399.31
2023-02-12T22:24:01.836Z,102399.31
2023-02-12T22:26:30.352Z,102388.31
2023-02-12T22:28:59.792Z,102390.25
2023-02-12T22:31:31.989Z,102388.88
2023-02-12T22:34:00.532Z,102388.59
2023-02-12T22:36:28.213Z,102387.75
2023-02-12T22:38:57.474Z,102394.38
2023-02-12T22:41:24.283Z,102393.56
2023-02-12T22:43:51.758Z,102397.13
2023-02-12T22:46:19.606Z,102390.50
2023-02-12T22:48:46.931Z,102382.25
2023-02-12T22:51:25.894Z,102383.91
2023-02-12T22:53:53.857Z,102385.84
2023-02-12T22:56:21.039Z,102382.81
2023-02-12T22:58:48.068Z,102389.41
2023-02-12T23:01:18.044Z,102375.13
2023-02-12T23:03:45.921Z,102369.63
2023-02-12T23:06:15.784Z,102366.28
2023-02-12T23:08:43.893Z,102369.03
2023-02-12T23:11:11.979Z,102369.63
2023-02-12T23:13:39.938Z,102365.22
2023-02-12T23:16:07.050Z,102361.94
2023-02-12T23:18:34.250Z,102360.28
2023-02-12T23:21:01.652Z,102364.94
2023-02-12T23:23:28.677Z,102371.56
2023-02-12T23:25:55.768Z,102371.28
2023-02-12T23:28:23.202Z,102374.56
2023-02-12T23:30:51.511Z,102375.69
2023-02-12T23:33:19.831Z,102383.94
2023-02-12T23:35:47.961Z,102382.28
2023-02-12T23:38:15.626Z,102383.13
2023-02-12T23:40:43.044Z,102379.81
2023-02-12T23:43:09.883Z,102383.94
2023-02-12T23:45:36.814Z,102386.69
2023-02-12T23:48:03.797Z,102383.38
2023-02-12T23:50:30.554Z,102388.03
2023-02-12T23:52:58.911Z,102392.16
2023-02-12T23:55:25.726Z,102393.25
2023-02-12T23:57:52.555Z,102388.00
